Innisfail, Canada
Current Conditions -  °F | °C
As of 5:00 AM on Friday 21 Nov 2014 (Local Time) from CYQF Reporting Station
Overcast Overcast  
Wind Chill: 26°   Ceiling: 12000
Heat Index: 32°   Visibility: 15mi
Dew Point: 23°   Wind: 6mph
Humidity: 69%   Direction: 220°SW
Pressure: 29.52"   Gusts: NA
Location:  52.03°N, 113.95°W
Report Text: CYQF 211200Z 22005KT 15SM OVC120 00/M05 A2952 RMK AC8 SLP034
Loading
Personal Weather Stations






























Interactive Weather Map New forecast layout! Learn more

10-Day Weather Forecast

Advertisements
Track Severe Weather on mobile